Clemson, SC

10:14 AM EDT on August 24, 2016 (GMT -0400)
CU Ent Dept | | Change Station

Elev 842 ft 34.68 °N, 82.83 °W | Updated 53 seconds ago

Rain
Rain
70.0 °F
Feels Like 70.0 °F
N
0.0
Wind Variable Wind from NE
Gusts 0.0 mph

Today
High -- | Low -- °F
--% Chance of Precip.
Yesterday
High -- | Low -- °F
Precip. -- in
Pressure 30.32 in
Visibility 9.0 miles
Clouds Mostly Cloudy 500 ft
Mostly Cloudy 900 ft
Overcast 2900 ft
Dew Point 70 °F
Humidity 100%
Rainfall 2.42 in
Snow Depth Not available.
6:58 AM 8:07 PM
Waning Gibbous, 56% visible
SPECI KCEU 241407Z AUTO 10006KT 9SM BKN005 BKN009 OVC029 23/21 A3032 RMK AO2 CIG 002V008 T02280211
Pressure 30.32 in
Visibility 9.0 miles
Clouds Mostly Cloudy 500 ft
Mostly Cloudy 900 ft
Overcast 2900 ft
Dew Point 70 °F
Humidity 100%
Rainfall 2.42 in
Snow Depth Not available.
6:58 AM 8:07 PM
Waning Gibbous, 56% visible
SPECI KCEU 241407Z AUTO 10006KT 9SM BKN005 BKN009 OVC029 23/21 A3032 RMK AO2 CIG 002V008 T02280211

10-Day Weather Forecast

Almanac

Astronomy

Aug. 24, 2016 Rise Set
Actual Time
Civil Twilight
Nautical Twilight
Astronomical Twilight
Moon
Length of Visible Light
Length of Day
Tomorrow will be .
, % of the Moon is Illuminated

Today's Extremes

State Highs State Lows

Community

WunderPhotos

Upload Photos

1,934,605 photos uploaded!

WunderBlog® & News

Nearby

Air Quality

  Air Quality AQ Index Pollutant
Not available.

Snow Depth

Station Depth Elevation

Earthquake Activity

City Distance Mag. Time & Date
Minimum magnitude displayed is 2.5.

Coastal Water Temperatures

Place Temperature

Stations

Nearby Weather Stations

Station Location Temp. Windchill Dew Point Humidity Wind Precip. Elev Updated Type
                   

Watches & Warnings

There are currently no watches in effect.